»·PEaware :: N7375Q KEUL-0ID2

N7375Q :: KEUL-0ID2

FLIGHT INFORMATION

Flight Status: Arrived
Operator: Privately registered:
United States
More flights under this callsign
Pilot: Ion I. (24133)
Aircraft: SOCATA TBM-900
(TBM9)
More flights by this aircraft type
Origin: KEUL Caldwell Industrial
United States
Destination: 0ID2 Flying Joseph Ranch Airport
United States
More flights between these airports :: More routes between these airports
Route: PARMO
File this flight plan on PilotEdge
Remarks:
Altitude:
(Current/Filed)
17,500ft
Speed:
(Current/Filed)
250kts
Departed: 14-Aug-20 11:32 AM
Arrived: 14-Aug-20 12:08 PM
Distance/Time
Traveled:
133nm/0:36
Distance/Time
To Go:
Arrived

Flight Plot

Page will automatically refresh every two minutes.

Flight plan parsing failed; only flown route is shown


Map Options




Map Legend


Flown Route
Filed Route
Departure Airport
Arrival Airport
Navaid (VOR, NDB)
Fix

Horizontal Profiles

Position Reports

Time Latitude Longitude Heading Altitude Ground
Speed
14-Aug-20 11:22 43.642415 -116.640153 137 2414ft 0kts
14-Aug-20 11:23 43.642415 -116.640153 137 2414ft 0kts
14-Aug-20 11:24 43.642415 -116.640153 137 2414ft 0kts
14-Aug-20 11:25 43.642415 -116.640153 137 2414ft 0kts
14-Aug-20 11:26 43.642410 -116.639998 67 2414ft 2kts
14-Aug-20 11:27 43.641086 -116.637880 102 2415ft 11kts
14-Aug-20 11:28 43.639209 -116.634306 135 2416ft 14kts
14-Aug-20 11:29 43.636135 -116.630075 136 2419ft 16kts
14-Aug-20 11:30 43.636696 -116.628702 314 2421ft 10kts
14-Aug-20 11:31 43.653671 -116.654270 312 3814ft 111kts
14-Aug-20 11:32 43.682248 -116.688074 356 5814ft 172kts
14-Aug-20 11:33 43.719887 -116.646621 43 7840ft 181kts
14-Aug-20 11:34 43.756221 -116.596717 42 9858ft 188kts
14-Aug-20 11:35 43.792888 -116.543095 42 11877ft 195kts
14-Aug-20 11:36 43.829567 -116.486635 42 13882ft 200kts
14-Aug-20 11:37 43.854994 -116.417189 67 15878ft 212kts
14-Aug-20 11:38 43.873981 -116.336753 68 17527ft 240kts
14-Aug-20 11:39 43.897416 -116.236933 69 17508ft 291kts
14-Aug-20 11:40 43.922930 -116.127720 69 17507ft 302kts
14-Aug-20 11:41 43.948787 -116.016511 69 17548ft 302kts
14-Aug-20 11:42 43.974514 -115.905299 69 17590ft 302kts
14-Aug-20 11:43 44.000102 -115.794130 69 17591ft 303kts
14-Aug-20 11:44 44.025635 -115.682634 69 17593ft 303kts
14-Aug-20 11:45 44.051099 -115.570857 69 17592ft 303kts
14-Aug-20 11:46 44.076483 -115.458852 69 17594ft 303kts
14-Aug-20 11:47 44.101842 -115.346408 69 17594ft 304kts
14-Aug-20 11:48 44.127104 -115.233826 69 17589ft 304kts
14-Aug-20 11:49 44.152158 -115.121554 69 17573ft 304kts
14-Aug-20 11:50 44.177176 -115.008865 69 17572ft 304kts
14-Aug-20 11:51 44.202055 -114.896212 69 17576ft 304kts
14-Aug-20 11:52 44.226928 -114.782954 69 17573ft 305kts
14-Aug-20 11:53 44.251599 -114.670043 69 17574ft 304kts
14-Aug-20 11:54 44.276210 -114.556780 69 17575ft 304kts
14-Aug-20 11:55 44.300638 -114.443712 70 17360ft 303kts
14-Aug-20 11:56 44.308015 -114.330335 87 15335ft 299kts
14-Aug-20 11:57 44.310777 -114.215807 82 13737ft 302kts
14-Aug-20 11:58 44.320454 -114.098050 82 12742ft 304kts
14-Aug-20 11:59 44.330484 -113.981548 82 11746ft 301kts
14-Aug-20 12:00 44.339644 -113.879761 82 11511ft 232kts
14-Aug-20 12:01 44.346700 -113.800309 82 9970ft 183kts
14-Aug-20 12:02 44.353607 -113.733007 71 7929ft 159kts
14-Aug-20 12:03 44.382111 -113.699335 28 7054ft 111kts
14-Aug-20 12:04 44.409276 -113.708883 306 6719ft 107kts
14-Aug-20 12:05 44.426398 -113.741725 305 6155ft 104kts
14-Aug-20 12:06 44.441606 -113.770797 306 5611ft 44kts
14-Aug-20 12:07 44.442022 -113.771647 122 5608ft 11kts
14-Aug-20 12:08 44.440601 -113.769980 132 5616ft 0kts
14-Aug-20 12:09 44.440601 -113.769981 132 5616ft 0kts
14-Aug-20 12:11 44.440601 -113.769981 132 5616ft 0kts
14-Aug-20 12:12 44.440601 -113.769981 132 5616ft 0kts
14-Aug-20 12:13 44.440601 -113.769981 132 5616ft 0kts
14-Aug-20 12:14 44.440601 -113.769981 132 5616ft 0kts
14-Aug-20 12:15 44.440601 -113.769981 132 5616ft 0kts

Navigation Log

Ident Type
Flight plan parsing failed, navigation log unavailable